Time;durP1;ratioP1;P1;durP2;ratioP2;P2;SDS_P1;SDS_P2;PMS_P1;PMS_P2;Temp;Humidity;BMP_temperature;BMP_pressure;BME280_temperature;BME280_humidity;BME280_pressure;Samples;Min_cycle;Max_cycle;Signal;HPM_P1;HPM_P2
2023/02/15 00:01:48;;;;;;;20.77;9.02;;;3.20;86.10;;;;;;4984693;28;20087;-60
2023/02/15 00:04:17;;;;;;;17.92;8.80;;;3.20;86.00;;;;;;4987239;28;20066;-61
2023/02/15 00:06:45;;;;;;;18.77;8.30;;;3.20;86.00;;;;;;4985248;28;20050;-61
2023/02/15 00:09:13;;;;;;;19.25;8.77;;;3.20;86.10;;;;;;4993114;28;20054;-63
2023/02/15 00:11:49;;;;;;;21.08;9.40;;;3.10;86.10;;;;;;4988857;28;20054;-60
2023/02/15 00:14:24;;;;;;;18.20;8.40;;;3.10;86.10;;;;;;4988001;28;20137;-61
2023/02/15 00:16:52;;;;;;;20.40;9.18;;;3.10;86.20;;;;;;4989774;28;20047;-61
2023/02/15 00:19:21;;;;;;;16.63;8.63;;;3.10;86.20;;;;;;4970178;28;20055;-61
2023/02/15 00:21:49;;;;;;;22.00;9.20;;;3.10;86.30;;;;;;4991184;28;20138;-59
2023/02/15 00:24:18;;;;;;;17.02;8.10;;;3.00;86.30;;;;;;4983333;28;20104;-60
2023/02/15 00:26:47;;;;;;;19.05;8.60;;;3.00;86.30;;;;;;4991326;28;20169;-62
2023/02/15 00:29:16;;;;;;;17.90;8.85;;;3.00;86.20;;;;;;4981861;28;20924;-60
2023/02/15 00:31:44;;;;;;;18.70;9.43;;;3.00;86.10;;;;;;4987854;28;20621;-64
2023/02/15 00:34:14;;;;;;;18.88;9.23;;;3.10;86.10;;;;;;4997258;28;20060;-63
2023/02/15 00:36:41;;;;;;;18.63;8.27;;;3.10;86.10;;;;;;5053318;28;20046;-68
2023/02/15 00:39:08;;;;;;;17.27;8.70;;;3.10;86.10;;;;;;4982377;28;20050;-67
2023/02/15 00:41:36;;;;;;;19.33;8.43;;;3.00;86.10;;;;;;4980442;28;20081;-69
2023/02/15 00:44:05;;;;;;;17.25;8.35;;;3.10;86.00;;;;;;4994173;28;20476;-67
2023/02/15 00:46:32;;;;;;;15.63;8.30;;;3.10;86.10;;;;;;4979582;28;20042;-69
2023/02/15 00:49:03;;;;;;;16.00;7.75;;;3.00;86.10;;;;;;4978762;28;20596;-69
2023/02/15 00:51:30;;;;;;;18.63;8.57;;;3.10;86.10;;;;;;4981352;28;20543;-68
2023/02/15 00:53:57;;;;;;;15.65;7.93;;;3.10;86.10;;;;;;4987637;28;20147;-68
2023/02/15 00:56:24;;;;;;;17.67;8.30;;;3.10;86.10;;;;;;4986819;28;20057;-69
2023/02/15 00:58:51;;;;;;;18.95;8.02;;;3.10;85.90;;;;;;4988974;28;20489;-70
2023/02/15 01:01:20;;;;;;;18.48;8.55;;;3.00;86.00;;;;;;4978632;28;20059;-67
2023/02/15 01:03:47;;;;;;;15.55;7.55;;;3.00;86.00;;;;;;4979877;28;20481;-69
2023/02/15 01:06:16;;;;;;;16.30;7.63;;;3.00;86.00;;;;;;4980724;28;20064;-68
2023/02/15 01:08:44;;;;;;;18.25;8.18;;;3.10;85.90;;;;;;4969919;28;20051;-67
2023/02/15 01:11:13;;;;;;;17.00;7.85;;;3.00;86.00;;;;;;4984550;28;20050;-68
2023/02/15 01:13:41;;;;;;;14.25;7.57;;;3.00;86.00;;;;;;4982128;28;20125;-68
2023/02/15 01:16:08;;;;;;;16.73;7.85;;;3.00;86.00;;;;;;4967663;28;20109;-69
2023/02/15 01:18:35;;;;;;;18.17;7.88;;;2.90;85.90;;;;;;4979473;28;20046;-67
2023/02/15 01:21:10;;;;;;;14.35;7.00;;;2.90;85.80;;;;;;4995102;28;20054;-68
2023/02/15 01:23:38;;;;;;;15.73;7.90;;;2.90;86.00;;;;;;4963674;28;20054;-70
2023/02/15 01:26:06;;;;;;;15.77;7.95;;;2.90;85.80;;;;;;4983606;28;20162;-69
2023/02/15 01:28:33;;;;;;;15.38;7.07;;;2.90;85.90;;;;;;4981680;28;20054;-67
2023/02/15 01:31:00;;;;;;;14.80;6.80;;;2.90;86.00;;;;;;4985305;28;20098;-69
2023/02/15 01:33:26;;;;;;;15.35;7.50;;;2.80;85.90;;;;;;4969134;28;20365;-69
2023/02/15 01:35:57;;;;;;;15.23;8.35;;;2.80;85.90;;;;;;4974146;28;20074;-67
2023/02/15 01:38:24;;;;;;;;;;;2.80;85.90;;;;;;4973901;28;20050;-67
2023/02/15 01:40:53;;;;;;;13.02;6.03;;;2.80;86.10;;;;;;4974899;28;19937;-68
2023/02/15 01:43:20;;;;;;;16.50;7.22;;;2.80;86.00;;;;;;4984198;28;20074;-68
2023/02/15 01:45:49;;;;;;;16.58;7.70;;;2.80;86.00;;;;;;4976868;28;20068;-67
2023/02/15 01:48:22;;;;;;;14.98;7.72;;;2.80;85.70;;;;;;4977421;28;20474;-69
2023/02/15 01:50:53;;;;;;;14.68;6.85;;;2.80;85.70;;;;;;4965623;28;20082;-68
2023/02/15 01:53:26;;;;;;;14.13;7.25;;;2.80;85.70;;;;;;4984034;28;20050;-68
2023/02/15 01:55:58;;;;;;;13.05;6.43;;;2.80;85.80;;;;;;4983330;28;20046;-68
2023/02/15 01:58:28;;;;;;;15.20;6.65;;;2.80;85.90;;;;;;4990816;28;20080;-68
2023/02/15 02:00:59;;;;;;;14.32;7.05;;;2.80;85.80;;;;;;4993801;28;20141;-68
2023/02/15 02:03:36;;;;;;;16.63;7.50;;;2.80;85.70;;;;;;4986882;28;20046;-69
2023/02/15 02:06:04;;;;;;;13.00;6.97;;;2.70;85.60;;;;;;4983575;28;20426;-68
2023/02/15 02:08:33;;;;;;;16.13;7.07;;;2.70;85.70;;;;;;4984638;28;20514;-69
2023/02/15 02:11:01;;;;;;;14.63;7.07;;;2.70;85.80;;;;;;4977954;28;20390;-69
2023/02/15 02:13:28;;;;;;;13.27;6.97;;;2.70;85.70;;;;;;4983037;28;20051;-69
2023/02/15 02:16:05;;;;;;;14.50;7.07;;;2.70;85.70;;;;;;4979028;28;20054;-68
2023/02/15 02:18:43;;;;;;;12.93;6.50;;;2.70;85.40;;;;;;4961478;28;20118;-68
2023/02/15 02:21:53;;;;;;;14.13;6.80;;;2.70;85.50;;;;;;4973472;28;20047;-69
2023/02/15 02:24:42;;;;;;;15.35;7.55;;;2.60;85.50;;;;;;4980706;28;20119;-69
2023/02/15 02:27:28;;;;;;;14.57;6.78;;;2.70;85.40;;;;;;4986823;28;20047;-68
2023/02/15 02:30:38;;;;;;;12.18;6.30;;;2.60;85.40;;;;;;4982907;28;20050;-67
2023/02/15 02:33:40;;;;;;;15.00;7.37;;;2.50;85.40;;;;;;4975589;28;20059;-68
2023/02/15 02:36:22;;;;;;;14.45;6.65;;;2.50;85.60;;;;;;4976249;28;20469;-68
2023/02/15 02:39:07;;;;;;;14.70;6.90;;;2.50;85.40;;;;;;4976036;28;20057;-70
2023/02/15 02:41:41;;;;;;;13.57;6.40;;;2.50;85.40;;;;;;4976175;28;20055;-69
2023/02/15 02:44:14;;;;;;;13.45;6.05;;;2.60;85.40;;;;;;4991446;28;20051;-69
2023/02/15 02:46:49;;;;;;;13.55;6.28;;;2.50;85.30;;;;;;4984849;28;20054;-68
2023/02/15 02:49:18;;;;;;;14.90;6.88;;;2.50;85.20;;;;;;4968595;28;20112;-68
2023/02/15 02:51:44;;;;;;;13.43;5.80;;;2.50;85.30;;;;;;4980492;28;20050;-69
2023/02/15 02:54:12;;;;;;;15.05;6.68;;;2.50;85.20;;;;;;4980049;28;20058;-70
2023/02/15 02:56:45;;;;;;;13.80;6.70;;;2.50;85.20;;;;;;4977736;28;20431;-67
2023/02/15 02:59:18;;;;;;;13.13;6.18;;;2.40;85.30;;;;;;4960862;28;20501;-68
2023/02/15 03:01:49;;;;;;;13.25;6.85;;;2.40;85.40;;;;;;4962649;28;20051;-69
2023/02/15 03:04:21;;;;;;;12.65;6.53;;;2.40;85.40;;;;;;4962716;28;20051;-69
2023/02/15 03:06:52;;;;;;;13.43;6.38;;;2.40;85.40;;;;;;4980883;28;20050;-69
2023/02/15 03:09:34;;;;;;;13.82;6.07;;;2.40;85.40;;;;;;4979347;28;20062;-69
2023/02/15 03:12:03;;;;;;;13.38;6.30;;;2.40;85.50;;;;;;4990972;28;20077;-68
2023/02/15 03:14:31;;;;;;;14.82;6.78;;;2.40;85.40;;;;;;4965287;28;20067;-68
2023/02/15 03:16:59;;;;;;;13.40;6.03;;;2.40;85.60;;;;;;4974866;28;20051;-67
2023/02/15 03:19:31;;;;;;;15.55;6.75;;;2.40;85.60;;;;;;5013723;27;20054;-67
2023/02/15 03:22:09;;;;;;;12.32;6.53;;;2.40;85.60;;;;;;4982525;28;20100;-69
2023/02/15 03:24:44;;;;;;;12.38;6.40;;;2.40;85.50;;;;;;4989046;28;20108;-68
2023/02/15 03:27:17;;;;;;;13.20;6.13;;;2.40;85.50;;;;;;5015866;28;20054;-65
2023/02/15 03:29:47;;;;;;;13.02;6.50;;;2.40;85.60;;;;;;4973326;28;20046;-68
2023/02/15 03:32:16;;;;;;;13.57;7.00;;;2.40;85.50;;;;;;4975879;28;20547;-68
2023/02/15 03:34:45;;;;;;;14.02;6.15;;;2.40;85.60;;;;;;4989183;28;20050;-68
2023/02/15 03:37:19;;;;;;;14.73;6.13;;;2.40;85.50;;;;;;4980888;28;20047;-68
2023/02/15 03:39:52;;;;;;;13.80;7.22;;;2.40;85.50;;;;;;4993045;28;20051;-68
2023/02/15 03:42:24;;;;;;;13.45;6.13;;;2.40;85.40;;;;;;4981945;28;20382;-69
2023/02/15 03:44:58;;;;;;;13.40;6.32;;;2.40;85.50;;;;;;5009614;28;20555;-69
2023/02/15 03:47:28;;;;;;;14.45;6.72;;;2.30;85.60;;;;;;4980293;28;20042;-66
2023/02/15 03:50:01;;;;;;;15.40;6.47;;;2.30;85.80;;;;;;4979773;28;20489;-67
2023/02/15 03:52:30;;;;;;;13.00;6.47;;;2.30;85.70;;;;;;4991911;28;20485;-68
2023/02/15 03:54:57;;;;;;;14.90;7.53;;;2.40;85.80;;;;;;4981970;28;20045;-67
2023/02/15 04:03:23;;;;;;;12.93;6.47;;;2.40;85.60;;;;;;4961039;28;20055;-68
2023/02/15 04:05:51;;;;;;;14.70;7.18;;;2.40;85.60;;;;;;4977092;28;20046;-69
2023/02/15 04:08:18;;;;;;;14.73;7.22;;;2.40;85.70;;;;;;4991456;28;20088;-68
2023/02/15 04:10:53;;;;;;;14.68;6.45;;;2.40;85.70;;;;;;4980888;28;20186;-67
2023/02/15 04:13:20;;;;;;;13.95;6.53;;;2.40;85.80;;;;;;4981067;28;20419;-67
2023/02/15 04:16:04;;;;;;;12.88;7.05;;;2.40;85.90;;;;;;4986781;28;20127;-67
2023/02/15 04:26:47;;;;;;;15.75;7.50;;;2.40;86.20;;;;;;4984038;28;20103;-68
2023/02/15 04:29:14;;;;;;;15.77;7.28;;;2.40;86.20;;;;;;4977705;28;20042;-69
2023/02/15 04:31:42;;;;;;;17.25;7.78;;;2.50;86.10;;;;;;4974157;28;20093;-69
2023/02/15 04:34:10;;;;;;;14.82;7.03;;;2.40;86.10;;;;;;4984954;28;20424;-68
2023/02/15 04:36:39;;;;;;;16.92;7.65;;;2.40;86.20;;;;;;4978958;28;20057;-57
2023/02/15 04:39:05;;;;;;;15.50;6.97;;;2.40;86.20;;;;;;4980758;28;20047;-60
2023/02/15 04:41:33;;;;;;;16.85;7.65;;;2.40;86.00;;;;;;4979263;28;20484;-59
2023/02/15 04:44:02;;;;;;;18.17;8.00;;;2.40;86.10;;;;;;4981090;28;20050;-58
2023/02/15 04:46:29;;;;;;;14.30;6.85;;;2.40;86.20;;;;;;4988024;28;20044;-59
2023/02/15 04:48:56;;;;;;;15.25;7.22;;;2.40;86.20;;;;;;4983744;28;20050;-57
2023/02/15 04:51:23;;;;;;;17.67;7.47;;;2.40;86.30;;;;;;4985862;28;20445;-58
2023/02/15 04:53:53;;;;;;;15.88;7.35;;;2.40;86.30;;;;;;4995414;28;20046;-59
2023/02/15 04:56:20;;;;;;;15.88;7.28;;;2.40;86.20;;;;;;4979545;28;20523;-57
2023/02/15 04:58:47;;;;;;;16.98;7.28;;;2.40;86.10;;;;;;4984553;28;20705;-58
2023/02/15 05:01:14;;;;;;;16.17;8.07;;;2.40;86.20;;;;;;4982472;28;20299;-58
2023/02/15 05:03:41;;;;;;;14.68;6.95;;;2.50;86.10;;;;;;4982390;28;20408;-59
2023/02/15 05:06:08;;;;;;;15.02;7.43;;;2.50;86.00;;;;;;4982113;28;20050;-58
2023/02/15 05:08:35;;;;;;;16.55;7.43;;;2.40;86.00;;;;;;4981533;28;20058;-59
2023/02/15 05:11:03;;;;;;;14.32;6.82;;;2.40;86.00;;;;;;4978371;28;20054;-58
2023/02/15 05:13:31;;;;;;;15.13;7.10;;;2.40;86.00;;;;;;4985183;28;20054;-58
2023/02/15 05:15:59;;;;;;;15.43;7.38;;;2.40;86.20;;;;;;4985666;28;20524;-59
2023/02/15 05:18:26;;;;;;;15.63;7.53;;;2.40;86.20;;;;;;4984300;28;20050;-59
2023/02/15 05:20:53;;;;;;;15.05;7.97;;;2.40;86.20;;;;;;4980167;28;20058;-59
2023/02/15 05:23:20;;;;;;;17.77;8.00;;;2.50;86.10;;;;;;4982185;28;20077;-59
2023/02/15 05:28:37;;;;;;;16.90;8.05;;;2.40;86.10;;;;;;4981606;28;20053;-58
2023/02/15 05:31:08;;;;;;;17.27;7.38;;;2.40;86.20;;;;;;4982797;28;20051;-59
2023/02/15 05:33:36;;;;;;;14.65;7.32;;;2.40;86.20;;;;;;4978462;28;20074;-58
2023/02/15 05:36:04;;;;;;;15.88;7.88;;;2.30;86.20;;;;;;4987696;28;20053;-59
2023/02/15 05:38:31;;;;;;;16.77;7.68;;;2.30;86.40;;;;;;4977320;28;20050;-59
2023/02/15 05:40:58;;;;;;;14.57;7.20;;;2.30;86.40;;;;;;4985196;28;20164;-58
2023/02/15 05:43:26;;;;;;;15.63;7.30;;;2.30;86.40;;;;;;4988094;28;20424;-57
2023/02/15 05:45:55;;;;;;;16.92;7.18;;;2.40;86.40;;;;;;4967525;28;20054;-57
2023/02/15 05:48:24;;;;;;;16.80;7.07;;;2.40;86.30;;;;;;4976269;28;20063;-57
2023/02/15 05:50:59;;;;;;;17.85;7.53;;;2.40;86.20;;;;;;4986089;28;20058;-60
2023/02/15 05:53:26;;;;;;;17.17;8.25;;;2.40;86.20;;;;;;4987150;28;20049;-61
2023/02/15 05:55:53;;;;;;;14.93;7.38;;;2.40;86.30;;;;;;4989745;28;20047;-61
2023/02/15 05:58:20;;;;;;;16.58;7.50;;;2.40;86.30;;;;;;4976429;28;21981;-60
2023/02/15 06:00:47;;;;;;;16.63;7.72;;;2.30;86.20;;;;;;4984290;28;20540;-61
2023/02/15 06:03:16;;;;;;;17.23;8.48;;;2.30;86.10;;;;;;4979071;28;20134;-60
2023/02/15 06:05:43;;;;;;;17.15;7.50;;;2.30;86.20;;;;;;4976402;28;20745;-62
2023/02/15 06:08:10;;;;;;;17.15;8.15;;;2.30;86.20;;;;;;4988751;28;20046;-61
2023/02/15 06:10:37;;;;;;;16.70;7.45;;;2.30;86.10;;;;;;4971851;28;20046;-62
2023/02/15 06:13:04;;;;;;;15.07;7.25;;;2.30;86.40;;;;;;4986726;28;20046;-62
2023/02/15 06:15:31;;;;;;;17.92;7.85;;;2.30;86.20;;;;;;4984776;28;20588;-61
2023/02/15 06:17:57;;;;;;;15.27;7.88;;;2.30;86.30;;;;;;4964698;28;20051;-63
2023/02/15 06:20:27;;;;;;;17.85;8.02;;;2.30;86.40;;;;;;4965558;28;20043;-61
2023/02/15 06:22:54;;;;;;;16.95;8.00;;;2.30;86.20;;;;;;4977191;28;20041;-62
2023/02/15 06:25:21;;;;;;;16.00;7.53;;;2.40;86.10;;;;;;4972891;28;20054;-62
2023/02/15 06:27:49;;;;;;;15.60;7.53;;;2.40;86.10;;;;;;4980234;28;20123;-61
2023/02/15 06:30:16;;;;;;;16.08;7.70;;;2.40;86.20;;;;;;4991164;28;20606;-61
2023/02/15 06:32:43;;;;;;;16.13;7.40;;;2.40;86.20;;;;;;4979238;28;20493;-62
2023/02/15 06:35:09;;;;;;;15.27;7.60;;;2.30;86.30;;;;;;4984541;28;20115;-62
2023/02/15 06:37:39;;;;;;;14.50;7.25;;;2.30;86.30;;;;;;4985378;28;20500;-61
2023/02/15 06:40:08;;;;;;;18.23;7.75;;;2.40;86.20;;;;;;4973170;28;20440;-61
2023/02/15 06:42:35;;;;;;;17.20;7.78;;;2.40;86.10;;;;;;4985772;28;20508;-62
2023/02/15 06:45:02;;;;;;;16.55;7.72;;;2.30;86.20;;;;;;4979081;28;21513;-61
2023/02/15 06:47:29;;;;;;;17.55;8.45;;;2.40;86.20;;;;;;4981903;28;20046;-61
2023/02/15 06:49:56;;;;;;;16.48;7.82;;;2.30;86.30;;;;;;4981422;28;20504;-60
2023/02/15 06:52:22;;;;;;;17.50;8.10;;;2.30;86.50;;;;;;4990460;28;20619;-61
2023/02/15 06:54:51;;;;;;;17.08;8.35;;;2.30;86.50;;;;;;4988068;28;20055;-60
2023/02/15 06:57:18;;;;;;;15.60;7.70;;;2.30;86.40;;;;;;4983400;28;20138;-61
2023/02/15 06:59:44;;;;;;;16.35;8.40;;;2.40;86.40;;;;;;4991077;28;20484;-60
2023/02/15 07:02:12;;;;;;;17.15;7.75;;;2.40;86.40;;;;;;4979749;28;20054;-61
2023/02/15 07:04:39;;;;;;;16.40;7.90;;;2.40;86.40;;;;;;4987245;28;20050;-61
2023/02/15 07:07:09;;;;;;;19.25;7.80;;;2.40;86.40;;;;;;4984015;28;20058;-61
2023/02/15 07:09:36;;;;;;;19.55;8.20;;;2.40;86.40;;;;;;4987853;28;20447;-60
2023/02/15 07:14:49;;;;;;;16.77;7.85;;;2.50;86.50;;;;;;4990365;28;20046;-61
2023/02/15 07:17:16;;;;;;;15.43;8.18;;;2.50;86.50;;;;;;4978010;28;20049;-60
2023/02/15 07:19:43;;;;;;;21.70;9.02;;;2.50;86.50;;;;;;4985800;28;20076;-61
2023/02/15 07:22:09;;;;;;;17.77;8.18;;;2.50;86.50;;;;;;4988411;28;20073;-61
2023/02/15 07:24:39;;;;;;;17.30;7.90;;;2.50;86.50;;;;;;4990966;28;20046;-60
2023/02/15 07:27:08;;;;;;;19.05;8.68;;;2.60;86.50;;;;;;4980524;28;20046;-60
2023/02/15 07:29:35;;;;;;;14.93;7.43;;;2.60;86.50;;;;;;4981997;28;20054;-60
2023/02/15 07:32:02;;;;;;;17.40;8.32;;;2.60;86.30;;;;;;4980604;28;20050;-61
2023/02/15 07:34:29;;;;;;;15.15;7.00;;;2.60;86.40;;;;;;4984633;28;20488;-61
2023/02/15 07:36:58;;;;;;;17.13;7.57;;;2.60;86.20;;;;;;4988556;28;20058;-61
2023/02/15 07:39:25;;;;;;;15.35;7.38;;;2.70;86.20;;;;;;4988688;28;20039;-60
2023/02/15 07:41:52;;;;;;;15.95;7.18;;;2.60;86.10;;;;;;4985471;28;20132;-59
2023/02/15 07:44:21;;;;;;;15.15;7.38;;;2.60;86.20;;;;;;4984350;28;20046;-61
2023/02/15 07:46:47;;;;;;;14.02;6.97;;;2.60;86.00;;;;;;4978751;28;20077;-61
2023/02/15 07:49:15;;;;;;;15.98;7.70;;;2.60;86.10;;;;;;4986961;28;20043;-60
2023/02/15 07:51:42;;;;;;;15.90;7.47;;;2.60;86.30;;;;;;4985569;28;20095;-61
2023/02/15 07:54:09;;;;;;;19.40;8.35;;;2.60;86.20;;;;;;4984066;28;20047;-61
2023/02/15 07:56:36;;;;;;;13.95;7.15;;;2.60;86.20;;;;;;4985035;28;20050;-60
2023/02/15 07:59:04;;;;;;;16.05;7.50;;;2.70;86.20;;;;;;4983093;28;20048;-60
2023/02/15 08:01:35;;;;;;;15.77;7.72;;;2.70;86.10;;;;;;4977488;28;20060;-61
2023/02/15 08:04:03;;;;;;;17.05;8.15;;;2.70;86.20;;;;;;4982261;28;20062;-61
2023/02/15 08:06:34;;;;;;;16.75;8.18;;;2.70;86.20;;;;;;4976830;28;20051;-60
2023/02/15 08:09:02;;;;;;;18.23;8.07;;;2.70;86.10;;;;;;4993007;28;20049;-61
2023/02/15 08:11:36;;;;;;;16.35;7.72;;;2.70;86.10;;;;;;4976340;28;20050;-61
2023/02/15 08:14:06;;;;;;;17.85;8.43;;;2.70;86.10;;;;;;4985789;28;20056;-61
2023/02/15 08:16:36;;;;;;;18.02;8.27;;;2.70;86.10;;;;;;4972954;28;20062;-61
2023/02/15 08:19:06;;;;;;;17.67;7.70;;;2.70;86.10;;;;;;4986211;28;20051;-62
2023/02/15 08:21:34;;;;;;;13.90;7.20;;;2.80;86.00;;;;;;4987779;28;20061;-61
2023/02/15 08:24:01;;;;;;;18.08;7.88;;;2.80;85.90;;;;;;4976426;28;20046;-61
2023/02/15 08:26:29;;;;;;;16.33;7.28;;;2.70;85.90;;;;;;4984866;28;20051;-61
2023/02/15 08:28:56;;;;;;;14.77;7.07;;;2.80;85.90;;;;;;4980596;28;20061;-61
2023/02/15 08:31:24;;;;;;;15.95;8.00;;;2.80;85.90;;;;;;4975617;28;20047;-61
2023/02/15 08:33:58;;;;;;;16.38;7.30;;;2.80;85.90;;;;;;4982182;28;20042;-60
2023/02/15 08:36:28;;;;;;;13.32;6.50;;;2.80;86.00;;;;;;4981749;28;20058;-61
2023/02/15 08:38:55;;;;;;;16.17;7.07;;;2.80;85.90;;;;;;4990199;28;20053;-59
2023/02/15 08:41:24;;;;;;;15.15;7.45;;;2.80;85.80;;;;;;4975538;28;20055;-61
2023/02/15 08:43:54;;;;;;;16.20;7.03;;;2.80;85.80;;;;;;4985365;28;20047;-59
2023/02/15 08:46:23;;;;;;;15.13;7.32;;;2.90;85.90;;;;;;4978162;28;20111;-60
2023/02/15 08:48:50;;;;;;;16.92;7.05;;;2.90;85.80;;;;;;5000706;28;20052;-60
2023/02/15 08:51:20;;;;;;;15.13;7.45;;;2.90;85.80;;;;;;4996503;28;20512;-61
2023/02/15 08:53:52;;;;;;;13.48;6.97;;;2.90;85.70;;;;;;4985771;28;20477;-61
2023/02/15 08:56:21;;;;;;;14.98;7.65;;;2.90;85.60;;;;;;4985053;28;20050;-61
2023/02/15 08:58:48;;;;;;;12.30;6.63;;;2.90;85.60;;;;;;4968555;28;20627;-61
2023/02/15 09:01:17;;;;;;;15.65;7.30;;;2.90;85.60;;;;;;4985229;28;20276;-61
2023/02/15 09:03:52;;;;;;;16.17;8.05;;;2.90;85.50;;;;;;4993929;28;20042;-60
2023/02/15 09:06:21;;;;;;;14.68;7.05;;;3.00;85.50;;;;;;4976656;28;20081;-61
2023/02/15 09:08:48;;;;;;;15.45;7.43;;;3.00;85.50;;;;;;4977892;28;20063;-61
2023/02/15 09:11:22;;;;;;;13.98;7.38;;;3.00;85.40;;;;;;4985677;28;20161;-62
2023/02/15 09:13:50;;;;;;;12.63;6.85;;;3.00;85.30;;;;;;4978423;28;20509;-61
2023/02/15 09:16:17;;;;;;;16.55;7.05;;;3.00;85.40;;;;;;4990466;28;20085;-61
2023/02/15 09:18:44;;;;;;;15.68;7.97;;;3.10;85.20;;;;;;4978595;28;20048;-61
2023/02/15 09:21:14;;;;;;;15.82;7.53;;;3.10;85.10;;;;;;4983826;28;20054;-61
2023/02/15 09:23:43;;;;;;;15.98;7.72;;;3.10;85.00;;;;;;4986296;28;20054;-60
2023/02/15 09:26:11;;;;;;;15.18;7.57;;;3.10;85.20;;;;;;4985479;28;20514;-63
2023/02/15 09:28:39;;;;;;;17.42;7.72;;;3.20;85.20;;;;;;4971470;28;20052;-60
2023/02/15 09:31:08;;;;;;;16.58;7.65;;;3.20;85.30;;;;;;4989266;28;20050;-60
2023/02/15 09:33:36;;;;;;;17.15;8.73;;;3.30;85.40;;;;;;4971621;28;20607;-62
2023/02/15 09:36:03;;;;;;;16.23;7.68;;;3.30;85.40;;;;;;4982394;28;20043;-61
2023/02/15 09:38:30;;;;;;;15.95;7.82;;;3.40;85.40;;;;;;4980412;28;20134;-61
2023/02/15 09:41:16;;;;;;;16.05;7.97;;;3.50;85.30;;;;;;4976126;28;20051;-61
2023/02/15 09:43:57;;;;;;;15.48;7.25;;;3.60;85.20;;;;;;4981728;28;20042;-61
2023/02/15 09:46:41;;;;;;;19.45;9.07;;;3.60;85.20;;;;;;4977507;28;20058;-62
2023/02/15 09:49:18;;;;;;;17.27;8.27;;;3.50;85.40;;;;;;4979150;28;20050;-61
2023/02/15 09:52:15;;;;;;;18.38;9.15;;;3.70;85.40;;;;;;4987589;28;20050;-61
2023/02/15 09:55:10;;;;;;;17.83;7.97;;;3.70;85.10;;;;;;4968517;28;20050;-59
2023/02/15 09:57:53;;;;;;;19.92;8.77;;;3.80;85.20;;;;;;4974481;28;20058;-61
2023/02/15 10:00:26;;;;;;;15.93;8.23;;;3.80;85.10;;;;;;4989034;28;20069;-61
2023/02/15 10:03:07;;;;;;;14.93;7.53;;;3.90;85.00;;;;;;4976929;28;20042;-60
2023/02/15 10:05:43;;;;;;;16.30;7.40;;;3.80;85.00;;;;;;4987511;28;20125;-60
2023/02/15 10:08:28;;;;;;;16.98;8.23;;;3.90;85.10;;;;;;4983445;28;20049;-63
2023/02/15 10:11:38;;;;;;;13.32;6.75;;;3.90;85.10;;;;;;4994418;28;20144;-59
2023/02/15 10:14:01;;;;;;;16.83;7.90;;;4.00;85.00;;;;;;4983748;28;20072;-61
2023/02/15 10:16:37;;;;;;;15.75;8.38;;;4.10;84.90;;;;;;4967211;28;20046;-60
2023/02/15 10:19:14;;;;;;;14.05;7.10;;;4.00;84.90;;;;;;4984238;28;20452;-61
2023/02/15 10:21:55;;;;;;;13.90;7.57;;;4.00;84.80;;;;;;4983376;28;20054;-60
2023/02/15 10:24:39;;;;;;;15.38;7.15;;;4.00;84.90;;;;;;4983695;28;20050;-60
2023/02/15 10:27:12;;;;;;;15.43;7.60;;;4.10;84.90;;;;;;4987885;28;20056;-60
2023/02/15 10:29:49;;;;;;;15.80;7.85;;;4.10;85.00;;;;;;4982075;28;20046;-61
2023/02/15 10:32:24;;;;;;;14.07;8.20;;;4.20;84.90;;;;;;4974525;28;20489;-60
2023/02/15 10:34:55;;;;;;;16.15;7.72;;;4.30;84.50;;;;;;4985644;28;20103;-60
2023/02/15 10:37:52;;;;;;;16.30;7.80;;;4.30;84.50;;;;;;4980449;28;20477;-60
2023/02/15 10:40:27;;;;;;;13.55;6.95;;;4.40;84.50;;;;;;4980996;28;20478;-61
2023/02/15 10:43:11;;;;;;;15.40;7.63;;;4.60;84.30;;;;;;4985858;28;20078;-61
2023/02/15 10:45:48;;;;;;;13.43;6.63;;;4.60;84.30;;;;;;4973729;28;20138;-61
2023/02/15 10:48:38;;;;;;;17.17;9.15;;;4.60;84.00;;;;;;4981641;28;20047;-61
2023/02/15 10:51:09;;;;;;;13.23;7.00;;;4.60;84.00;;;;;;4976900;28;20059;-61
2023/02/15 10:53:54;;;;;;;15.88;7.53;;;4.70;83.80;;;;;;4983537;28;20121;-61
2023/02/15 10:56:28;;;;;;;15.23;7.00;;;4.70;83.80;;;;;;4981730;28;20279;-61
2023/02/15 10:59:05;;;;;;;16.88;7.45;;;4.70;83.90;;;;;;4985233;28;20054;-60
2023/02/15 11:01:37;;;;;;;13.55;7.32;;;4.80;83.70;;;;;;4966431;28;20066;-60
2023/02/15 11:04:46;;;;;;;16.25;7.53;;;4.90;83.60;;;;;;4977654;28;20066;-61
2023/02/15 11:07:19;;;;;;;14.65;7.07;;;4.90;83.60;;;;;;5022656;28;20583;-60
2023/02/15 11:09:50;;;;;;;13.70;7.20;;;5.00;83.50;;;;;;4992272;28;20528;-61
2023/02/15 11:12:22;;;;;;;14.00;7.20;;;5.00;83.20;;;;;;4976509;28;20063;-61
2023/02/15 11:14:56;;;;;;;13.43;6.43;;;4.90;83.50;;;;;;4982483;28;20487;-61
2023/02/15 11:17:29;;;;;;;13.82;7.18;;;5.00;83.30;;;;;;4983024;28;20163;-61
2023/02/15 11:20:04;;;;;;;13.45;6.72;;;5.10;83.20;;;;;;4980863;28;20050;-62
2023/02/15 11:22:32;;;;;;;13.98;6.72;;;5.00;83.30;;;;;;4985105;28;20381;-60
2023/02/15 11:25:01;;;;;;;12.95;6.85;;;5.00;83.30;;;;;;4978753;28;20334;-60
2023/02/15 11:27:32;;;;;;;13.45;6.93;;;5.10;83.10;;;;;;4976807;28;20401;-61
2023/02/15 11:30:02;;;;;;;13.40;6.88;;;5.20;83.00;;;;;;4976723;28;20046;-65
2023/02/15 11:32:34;;;;;;;13.13;6.68;;;5.20;82.90;;;;;;4981892;28;20051;-62
2023/02/15 11:35:06;;;;;;;13.55;6.93;;;5.20;82.90;;;;;;4980088;28;20055;-61
2023/02/15 11:37:39;;;;;;;14.10;7.25;;;5.20;83.00;;;;;;4989415;28;20137;-61
2023/02/15 11:40:20;;;;;;;15.18;7.30;;;5.30;82.80;;;;;;4976971;28;20060;-61
2023/02/15 11:42:49;;;;;;;12.32;7.20;;;5.40;82.70;;;;;;4987172;28;20092;-61
2023/02/15 11:45:24;;;;;;;13.23;6.75;;;5.40;82.90;;;;;;4975172;28;20066;-62
2023/02/15 11:47:53;;;;;;;13.45;7.03;;;5.50;82.70;;;;;;4987033;28;20179;-61
2023/02/15 11:50:24;;;;;;;14.05;7.53;;;5.50;82.50;;;;;;4988215;28;20064;-61
2023/02/15 11:52:52;;;;;;;14.55;7.30;;;5.60;82.40;;;;;;4984076;28;20053;-61
2023/02/15 11:55:23;;;;;;;13.82;7.38;;;5.60;82.20;;;;;;4985163;28;20047;-61
2023/02/15 11:57:55;;;;;;;13.70;6.85;;;5.70;82.10;;;;;;4983253;28;20046;-63
2023/02/15 12:00:35;;;;;;;11.70;6.40;;;5.70;82.20;;;;;;4985388;28;23650;-62
2023/02/15 12:03:13;;;;;;;12.10;6.53;;;5.70;82.00;;;;;;4992566;28;20054;-61
2023/02/15 12:05:43;;;;;;;12.98;6.55;;;5.70;81.90;;;;;;4981833;28;20049;-62
2023/02/15 12:08:18;;;;;;;12.48;7.03;;;5.70;81.70;;;;;;4986253;28;20428;-61
2023/02/15 12:10:57;;;;;;;15.20;7.90;;;5.80;81.80;;;;;;4989902;28;20034;-60
2023/02/15 12:13:23;;;;;;;12.32;7.07;;;5.80;81.80;;;;;;4986768;28;20069;-61
2023/02/15 12:15:54;;;;;;;12.38;6.43;;;5.90;81.70;;;;;;4991277;28;20042;-61
2023/02/15 12:18:37;;;;;;;11.88;6.63;;;5.90;81.60;;;;;;4974336;28;20504;-61
2023/02/15 12:21:08;;;;;;;12.70;6.82;;;5.90;81.90;;;;;;4988663;28;20050;-61
2023/02/15 12:23:42;;;;;;;13.32;6.95;;;5.90;82.10;;;;;;4975464;28;20047;-61
2023/02/15 12:26:09;;;;;;;12.88;6.90;;;6.00;81.70;;;;;;4988129;28;20059;-61
2023/02/15 12:28:38;;;;;;;12.88;7.07;;;6.00;81.70;;;;;;4989996;28;20050;-61
2023/02/15 12:31:19;;;;;;;14.35;6.93;;;6.00;81.70;;;;;;4977663;28;20416;-61
2023/02/15 12:33:47;;;;;;;;;;;6.00;81.40;;;;;;4981608;28;20043;-61
2023/02/15 12:36:19;;;;;;;13.00;6.22;;;6.00;81.30;;;;;;4981616;28;20291;-62
2023/02/15 12:39:05;;;;;;;12.25;7.20;;;6.00;81.30;;;;;;4992159;28;20056;-60
2023/02/15 12:41:33;;;;;;;11.90;6.53;;;5.90;81.40;;;;;;4979049;28;20938;-62
2023/02/15 12:44:16;;;;;;;12.70;6.68;;;5.90;81.40;;;;;;4980668;28;20046;-61
2023/02/15 12:46:57;;;;;;;15.35;7.18;;;5.90;81.40;;;;;;4983082;28;20051;-62
2023/02/15 12:49:26;;;;;;;;;;;5.90;81.60;;;;;;4979773;28;20130;-61
2023/02/15 12:51:55;;;;;;;13.15;7.15;;;5.90;81.70;;;;;;4975093;28;19929;-62
2023/02/15 12:54:39;;;;;;;12.75;7.32;;;5.80;81.70;;;;;;4986846;28;20043;-61
2023/02/15 12:57:31;;;;;;;13.40;7.20;;;5.80;81.90;;;;;;4976948;28;20496;-61
2023/02/15 13:00:04;;;;;;;14.60;7.22;;;5.80;82.00;;;;;;4998385;28;20069;-61
2023/02/15 13:02:42;;;;;;;13.52;7.32;;;5.70;82.30;;;;;;5017991;28;20078;-61
2023/02/15 13:05:27;;;;;;;13.75;7.05;;;5.70;82.40;;;;;;4972583;28;20054;-61
2023/02/15 13:07:57;;;;;;;13.57;7.18;;;5.70;82.30;;;;;;4985864;28;20049;-61
2023/02/15 13:10:28;;;;;;;13.98;7.63;;;5.70;82.30;;;;;;4980476;28;20159;-61
2023/02/15 13:12:57;;;;;;;;;;;5.70;82.30;;;;;;4980799;28;20091;-60
2023/02/15 13:15:28;;;;;;;11.73;6.43;;;5.70;82.20;;;;;;4976091;28;19922;-61
2023/02/15 13:17:56;;;;;;;13.25;7.45;;;5.70;82.10;;;;;;4983403;28;20498;-61
2023/02/15 13:20:27;;;;;;;13.45;6.72;;;5.70;82.20;;;;;;4982162;28;20040;-60
2023/02/15 13:22:58;;;;;;;14.07;7.32;;;5.70;82.10;;;;;;4988809;28;20100;-61
2023/02/15 13:25:29;;;;;;;14.05;6.70;;;5.60;82.20;;;;;;4981906;28;20527;-61
2023/02/15 13:27:59;;;;;;;14.00;7.60;;;5.60;82.20;;;;;;4982976;28;20050;-60
2023/02/15 13:30:31;;;;;;;13.48;7.47;;;5.60;82.90;;;;;;4977586;28;20064;-60